createdAt,value
2018-02-06T00:00:35.847Z,26.17
2018-02-06T00:03:01.919Z,26.15
2018-02-06T00:05:27.942Z,26.92
2018-02-06T00:07:53.932Z,24.87
2018-02-06T00:10:20.691Z,24.67
2018-02-06T00:12:46.731Z,29.92
2018-02-06T00:15:12.729Z,24.40
2018-02-06T00:17:38.739Z,29.00
2018-02-06T00:20:04.725Z,28.48
2018-02-06T00:22:42.946Z,24.73
2018-02-06T00:25:08.986Z,24.80
2018-02-06T00:27:35.905Z,22.87
2018-02-06T00:30:02.602Z,25.62
2018-02-06T00:32:28.627Z,26.23
2018-02-06T00:34:54.587Z,27.42
2018-02-06T00:37:21.491Z,26.83
2018-02-06T00:39:47.487Z,25.08
2018-02-06T00:42:13.515Z,25.90
2018-02-06T00:44:39.506Z,23.12
2018-02-06T00:47:05.590Z,25.95
2018-02-06T00:49:31.588Z,25.67
2018-02-06T00:51:57.596Z,27.98
2018-02-06T00:54:23.624Z,25.80
2018-02-06T00:56:50.329Z,24.48
2018-02-06T00:59:16.314Z,23.95
2018-02-06T01:01:42.291Z,27.27
2018-02-06T01:04:08.246Z,24.03
2018-02-06T01:06:34.191Z,26.40
2018-02-06T01:09:00.353Z,24.53
2018-02-06T01:11:26.478Z,20.80
2018-02-06T01:13:52.470Z,26.80
2018-02-06T01:16:18.477Z,27.13
2018-02-06T01:18:44.437Z,27.27
2018-02-06T01:21:10.438Z,25.37
2018-02-06T01:23:36.422Z,24.12
2018-02-06T01:26:02.469Z,28.33
2018-02-06T01:28:28.409Z,25.40
2018-02-06T01:30:54.343Z,25.03
2018-02-06T01:33:20.371Z,35.10
2018-02-06T01:35:46.361Z,24.27
2018-02-06T01:38:12.467Z,27.35
2018-02-06T01:40:38.514Z,26.50
2018-02-06T01:43:04.522Z,23.00
2018-02-06T01:45:30.543Z,24.52
2018-02-06T01:47:57.265Z,26.67
2018-02-06T01:50:23.308Z,27.37
2018-02-06T01:52:49.387Z,25.23
2018-02-06T01:55:16.087Z,28.90
2018-02-06T01:57:43.107Z,27.98
2018-02-06T02:00:09.098Z,23.35
2018-02-06T02:02:35.098Z,22.43
2018-02-06T02:05:01.076Z,25.90
2018-02-06T02:07:27.083Z,22.17
2018-02-06T02:09:55.112Z,21.10
2018-02-06T02:12:21.161Z,27.02
2018-02-06T02:14:47.936Z,25.80
2018-02-06T02:17:13.941Z,24.52
2018-02-06T02:19:39.897Z,27.92
2018-02-06T02:22:05.836Z,26.50
2018-02-06T02:24:31.872Z,26.13
2018-02-06T02:26:58.625Z,28.20
2018-02-06T02:29:24.708Z,24.37
2018-02-06T02:31:50.812Z,26.08
2018-02-06T02:34:17.443Z,25.92
2018-02-06T02:36:43.461Z,27.92
2018-02-06T02:39:09.522Z,29.30
2018-02-06T02:41:35.474Z,27.85
2018-02-06T04:38:34.263Z,29.75
2018-02-06T04:41:00.308Z,28.10
2018-02-06T04:43:27.095Z,33.05
2018-02-06T04:45:53.243Z,28.05
2018-02-06T04:48:19.369Z,33.30
2018-02-06T04:50:45.391Z,30.67
2018-02-06T04:53:11.342Z,28.50
2018-02-06T04:55:39.066Z,26.50
2018-02-06T04:58:05.054Z,24.23
2018-02-06T05:00:33.845Z,30.83
2018-02-06T05:02:59.859Z,30.00
2018-02-06T05:05:26.902Z,34.28
2018-02-06T05:07:52.947Z,29.58
2018-02-06T05:10:20.269Z,27.02
2018-02-06T05:12:46.230Z,28.95
2018-02-06T05:15:12.332Z,26.60
2018-02-06T05:17:38.408Z,33.38
2018-02-06T05:20:04.381Z,28.60
2018-02-06T05:22:30.571Z,25.00
2018-02-06T05:24:56.710Z,28.98
2018-02-06T05:27:22.778Z,33.30
2018-02-06T05:29:48.854Z,27.52
2018-02-06T05:32:16.337Z,27.48
2018-02-06T05:34:42.367Z,30.00
2018-02-06T05:37:09.262Z,30.55
2018-02-06T05:39:35.773Z,34.92
2018-02-06T05:42:01.887Z,30.45
2018-02-06T05:44:27.880Z,33.63
2018-02-06T05:46:53.927Z,29.12
2018-02-06T05:49:20.854Z,29.23
2018-02-06T05:51:46.852Z,34.95
2018-02-06T05:54:13.469Z,28.33
2018-02-06T05:56:39.610Z,30.25
2018-02-06T05:59:05.632Z,33.67
2018-02-06T06:01:31.638Z,25.52
2018-02-06T06:03:57.906Z,29.97
2018-02-06T06:06:23.901Z,30.30
2018-02-06T06:08:50.162Z,31.20
2018-02-06T06:11:16.448Z,31.98
2018-02-06T06:13:42.414Z,32.72
2018-02-06T06:16:08.410Z,30.80
2018-02-06T06:18:34.482Z,32.67
2018-02-06T06:21:01.596Z,30.75
2018-02-06T06:23:27.723Z,29.45
2018-02-06T06:25:53.850Z,27.35
2018-02-06T06:28:20.000Z,39.95
2018-02-06T06:30:46.078Z,51.13
2018-02-06T06:33:12.175Z,34.28
2018-02-06T06:38:08.880Z,32.30
2018-02-06T06:40:34.902Z,30.60
2018-02-06T06:43:01.603Z,32.03
2018-02-06T06:45:27.675Z,34.47
2018-02-06T06:47:53.894Z,33.65
2018-02-06T06:50:19.936Z,38.55
2018-02-06T06:52:46.087Z,30.42
2018-02-06T06:55:12.136Z,34.78
2018-02-06T06:57:38.214Z,33.97
2018-02-06T07:00:04.239Z,28.98
2018-02-06T07:02:31.712Z,28.10
2018-02-06T07:04:58.546Z,33.90
2018-02-06T07:07:25.321Z,30.65
2018-02-06T07:09:52.106Z,38.55
2018-02-06T07:12:19.260Z,35.03
2018-02-06T07:14:45.223Z,27.13
2018-02-06T07:17:11.299Z,39.30
2018-02-06T07:19:37.486Z,33.13
2018-02-06T07:22:03.645Z,36.42
2018-02-06T07:24:34.907Z,35.50
2018-02-06T07:27:01.704Z,30.58
2018-02-06T07:29:29.199Z,31.65
2018-02-06T07:31:55.750Z,29.67
2018-02-06T07:34:22.317Z,30.55
2018-02-06T07:36:48.322Z,26.62
2018-02-06T07:39:14.470Z,28.02
2018-02-06T07:41:41.368Z,32.28
2018-02-06T07:44:08.391Z,28.55
2018-02-06T07:46:34.521Z,36.28
2018-02-06T07:49:00.544Z,31.90
2018-02-06T07:51:28.124Z,31.48
2018-02-06T07:53:54.180Z,30.12
2018-02-06T07:56:24.495Z,29.95
2018-02-06T07:58:51.196Z,65.70
2018-02-06T08:01:17.213Z,36.05
2018-02-06T08:03:43.321Z,32.58
2018-02-06T08:06:09.311Z,56.10
2018-02-06T08:08:35.400Z,38.72
2018-02-06T08:11:01.422Z,32.47
2018-02-06T08:13:27.537Z,33.17
2018-02-06T08:15:54.080Z,30.33
2018-02-06T08:18:20.215Z,32.75
2018-02-06T08:20:46.303Z,33.20
2018-02-06T08:23:13.263Z,32.72
2018-02-06T08:25:40.165Z,28.23
2018-02-06T08:28:06.282Z,31.00
2018-02-06T08:30:33.053Z,28.35
2018-02-06T08:32:59.057Z,29.87
2018-02-06T08:35:25.890Z,29.58
2018-02-06T08:37:52.255Z,27.83
2018-02-06T08:40:18.335Z,28.08
2018-02-06T08:42:44.368Z,32.60
2018-02-06T08:45:10.371Z,31.48
2018-02-06T08:47:36.980Z,32.33
2018-02-06T08:50:03.953Z,31.00
2018-02-06T08:52:29.994Z,32.78
2018-02-06T08:54:57.406Z,30.85
2018-02-06T08:57:23.462Z,33.95
2018-02-06T08:59:49.529Z,33.17
2018-02-06T09:02:15.490Z,31.17
2018-02-06T09:04:42.901Z,36.80
2018-02-06T09:07:08.958Z,34.58
2018-02-06T09:09:35.034Z,37.92
2018-02-06T09:12:02.792Z,30.40
2018-02-06T09:14:29.520Z,35.17
2018-02-06T09:16:55.624Z,32.88
2018-02-06T09:19:21.699Z,37.03
2018-02-06T09:21:48.650Z,32.03
2018-02-06T09:24:14.746Z,32.00
2018-02-06T09:26:41.720Z,37.08
2018-02-06T09:29:10.410Z,32.03
2018-02-06T09:31:36.719Z,32.88
2018-02-06T09:34:03.011Z,26.08
2018-02-06T09:36:28.994Z,32.22
2018-02-06T09:38:55.000Z,33.23
2018-02-06T09:41:21.383Z,29.70
2018-02-06T09:43:47.588Z,35.95
2018-02-06T09:46:14.101Z,33.90
2018-02-06T09:48:40.543Z,36.42
2018-02-06T09:51:07.409Z,35.08
2018-02-06T09:53:34.569Z,32.80
2018-02-06T09:56:00.704Z,31.45
2018-02-06T09:58:26.773Z,38.33
2018-02-06T10:00:52.767Z,42.78
2018-02-06T10:03:19.024Z,37.40
2018-02-06T10:05:45.261Z,36.97
2018-02-06T10:08:11.484Z,36.95
2018-02-06T10:10:37.548Z,35.15
2018-02-06T10:13:03.873Z,38.13
2018-02-06T10:15:29.960Z,36.03
2018-02-06T10:17:56.834Z,38.97
2018-02-06T10:20:22.936Z,38.38
2018-02-06T10:22:48.999Z,39.13
2018-02-06T10:25:15.378Z,35.70
2018-02-06T10:27:41.829Z,39.28
2018-02-06T10:30:08.998Z,32.92
2018-02-06T10:32:35.016Z,28.40
2018-02-06T10:35:01.810Z,36.72
2018-02-06T10:37:27.889Z,30.70
2018-02-06T10:39:53.906Z,34.55
2018-02-06T10:42:20.034Z,36.08
2018-02-06T10:44:46.038Z,38.47
2018-02-06T10:47:12.250Z,40.17
2018-02-06T10:49:38.288Z,38.90
2018-02-06T10:52:05.126Z,34.97
2018-02-06T10:54:32.867Z,50.45
2018-02-06T10:56:59.649Z,34.00
2018-02-06T10:59:25.805Z,35.05
2018-02-06T11:01:51.804Z,36.45
2018-02-06T11:04:17.798Z,40.65
2018-02-06T11:06:43.811Z,34.17
2018-02-06T11:09:10.092Z,32.75
2018-02-06T11:11:36.165Z,33.15
2018-02-06T11:14:03.190Z,36.30
2018-02-06T11:16:29.285Z,40.60
2018-02-06T11:18:55.568Z,36.40
2018-02-06T11:21:21.640Z,38.88
2018-02-06T11:23:48.675Z,32.97
2018-02-06T11:26:16.327Z,33.97
2018-02-06T11:28:42.352Z,34.50
2018-02-06T11:31:08.681Z,40.42
2018-02-06T11:33:34.754Z,38.55
2018-02-06T11:36:01.240Z,37.85
2018-02-06T11:38:27.459Z,31.23
2018-02-06T11:40:53.702Z,34.80
2018-02-06T11:43:19.827Z,37.40
2018-02-06T11:45:45.955Z,29.90
2018-02-06T11:48:12.046Z,33.30
2018-02-06T11:50:39.025Z,33.72
2018-02-06T11:53:06.428Z,35.50
2018-02-06T11:55:32.508Z,32.33
2018-02-06T11:57:58.535Z,34.22
2018-02-06T12:00:24.556Z,36.05
2018-02-06T12:02:51.272Z,38.42
2018-02-06T12:05:17.292Z,32.03
2018-02-06T12:07:43.442Z,34.55
2018-02-06T12:10:09.473Z,33.08
2018-02-06T12:12:35.470Z,34.05
2018-02-06T12:15:01.506Z,34.63
2018-02-06T12:17:28.661Z,33.42
2018-02-06T12:19:54.781Z,30.50
2018-02-06T12:22:20.806Z,38.85
2018-02-06T12:24:47.639Z,33.92
2018-02-06T12:27:13.670Z,41.22
2018-02-06T12:29:39.955Z,30.03
2018-02-06T12:32:06.230Z,29.42
2018-02-06T12:34:37.038Z,31.73
2018-02-06T12:37:04.022Z,34.08
2018-02-06T12:39:30.140Z,30.23
2018-02-06T12:41:56.252Z,36.33
2018-02-06T12:44:22.340Z,32.65
2018-02-06T12:46:48.413Z,29.15
2018-02-06T12:49:14.437Z,29.63
2018-02-06T12:51:40.457Z,53.63
2018-02-06T12:54:06.550Z,33.95
2018-02-06T12:56:32.608Z,33.33
2018-02-06T12:58:58.723Z,31.27
2018-02-06T13:01:24.734Z,31.45
2018-02-06T13:03:50.779Z,32.33
2018-02-06T13:06:17.696Z,34.90
2018-02-06T13:08:43.786Z,33.53
2018-02-06T13:11:11.038Z,31.12
2018-02-06T13:16:18.363Z,35.53
2018-02-06T13:18:44.401Z,35.10
2018-02-06T13:21:10.399Z,31.55
2018-02-06T13:23:36.353Z,28.65
2018-02-06T13:26:02.385Z,42.60
2018-02-06T13:28:29.088Z,34.25
2018-02-06T13:30:55.381Z,37.40
2018-02-06T13:33:21.446Z,28.42
2018-02-06T13:35:47.928Z,34.30
2018-02-06T13:38:15.364Z,32.97
2018-02-06T13:40:42.754Z,32.92
2018-02-06T13:43:10.654Z,29.20
2018-02-06T13:45:37.449Z,37.33
2018-02-06T13:48:05.404Z,29.58
2018-02-06T13:50:31.490Z,28.92
2018-02-06T13:52:57.455Z,30.83
2018-02-06T13:55:24.572Z,31.77
2018-02-06T13:57:52.791Z,28.35
2018-02-06T14:00:19.573Z,33.83
2018-02-06T14:02:46.830Z,30.20
2018-02-06T14:05:12.863Z,30.90
2018-02-06T14:07:38.883Z,30.23
2018-02-06T14:10:04.974Z,32.70
2018-02-06T14:12:31.052Z,32.35
2018-02-06T14:14:57.170Z,35.47
2018-02-06T14:17:23.974Z,32.38
2018-02-06T14:19:50.188Z,48.05
2018-02-06T14:22:16.251Z,34.15
2018-02-06T14:24:42.422Z,29.83
2018-02-06T14:27:08.641Z,31.90
2018-02-06T14:29:34.842Z,30.73
2018-02-06T14:32:01.003Z,30.50
2018-02-06T14:34:27.026Z,29.75
2018-02-06T14:36:53.042Z,28.33
2018-02-06T14:39:19.080Z,30.35
2018-02-06T14:41:45.065Z,35.95
2018-02-06T14:44:11.012Z,34.53
2018-02-06T14:46:37.112Z,44.20
2018-02-06T14:49:03.112Z,32.35
2018-02-06T14:51:29.051Z,35.47
2018-02-06T14:53:55.654Z,34.23
2018-02-06T14:56:25.832Z,30.02
2018-02-06T14:58:54.594Z,33.65
2018-02-06T15:01:21.686Z,28.60
2018-02-06T15:03:47.705Z,35.92
2018-02-06T15:06:13.688Z,30.65
2018-02-06T15:08:41.858Z,35.50
2018-02-06T15:11:09.219Z,35.17
2018-02-06T15:13:35.219Z,34.17
2018-02-06T15:16:02.143Z,29.60
2018-02-06T15:18:28.145Z,35.75
2018-02-06T15:20:55.025Z,37.00
2018-02-06T15:23:20.988Z,30.42
2018-02-06T15:25:46.991Z,41.97
2018-02-06T15:28:16.142Z,30.10
2018-02-06T15:30:42.206Z,33.78
2018-02-06T15:33:09.929Z,32.63
2018-02-06T15:35:36.680Z,27.77
2018-02-06T15:38:02.700Z,31.75
2018-02-06T15:40:28.667Z,41.28
2018-02-06T15:42:54.614Z,31.13
2018-02-06T15:45:20.864Z,33.37
2018-02-06T15:47:47.472Z,31.70
2018-02-06T15:58:01.015Z,40.40
2018-02-06T16:00:31.947Z,34.30
2018-02-06T16:02:58.175Z,38.28
2018-02-06T16:05:24.122Z,34.40
2018-02-06T16:07:50.237Z,37.27
2018-02-06T16:10:16.191Z,33.15
2018-02-06T16:12:42.241Z,43.33
2018-02-06T16:15:08.519Z,33.65
2018-02-06T16:17:34.784Z,36.00
2018-02-06T16:20:04.105Z,35.38
2018-02-06T16:22:33.119Z,44.17
2018-02-06T16:24:59.892Z,42.03
2018-02-06T16:27:26.631Z,31.87
2018-02-06T16:29:59.471Z,30.27
2018-02-06T16:32:25.684Z,29.37
2018-02-06T16:37:24.791Z,37.53
2018-02-06T16:39:51.394Z,36.80
2018-02-06T16:42:17.514Z,41.83
2018-02-06T16:44:46.245Z,38.08
2018-02-06T16:47:13.967Z,40.30
2018-02-06T16:49:42.435Z,38.25
2018-02-06T16:52:08.501Z,38.05
2018-02-06T16:54:40.939Z,36.42
2018-02-06T16:57:07.156Z,31.05
2018-02-06T16:59:33.546Z,34.35
2018-02-06T17:02:00.942Z,31.60
2018-02-06T17:04:27.537Z,34.20
2018-02-06T17:06:53.533Z,36.40
2018-02-06T17:09:19.644Z,37.40
2018-02-06T17:11:45.990Z,36.80
2018-02-06T17:14:12.989Z,35.58
2018-02-06T17:16:38.966Z,32.25
2018-02-06T17:19:04.919Z,33.73
2018-02-06T17:21:30.904Z,36.77
2018-02-06T17:23:56.927Z,30.27
2018-02-06T17:26:22.891Z,32.67
2018-02-06T17:28:48.908Z,31.60
2018-02-06T17:31:15.030Z,39.15
2018-02-06T17:33:42.298Z,37.35
2018-02-06T17:36:09.049Z,31.80
2018-02-06T17:38:35.014Z,40.03
2018-02-06T17:41:01.059Z,40.40
2018-02-06T17:43:27.071Z,35.88
2018-02-06T17:45:53.779Z,40.10
2018-02-06T17:48:19.784Z,37.05
2018-02-06T17:50:46.309Z,36.30
2018-02-06T17:53:12.299Z,38.08
2018-02-06T17:55:39.132Z,37.17
2018-02-06T17:58:05.071Z,35.92
2018-02-06T18:00:33.912Z,43.57
2018-02-06T18:02:59.962Z,39.45
2018-02-06T18:05:25.894Z,42.30
2018-02-06T18:07:52.125Z,36.27
2018-02-06T18:10:18.845Z,31.80
2018-02-06T18:12:44.875Z,35.97
2018-02-06T18:15:10.894Z,34.25
2018-02-06T18:17:38.018Z,40.00
2018-02-06T18:20:04.003Z,36.08
2018-02-06T18:22:29.997Z,31.23
2018-02-06T18:24:56.313Z,40.37
2018-02-06T18:27:22.310Z,32.75
2018-02-06T18:29:54.511Z,34.25
2018-02-06T18:32:20.525Z,40.03
2018-02-06T18:34:46.522Z,33.00
2018-02-06T18:37:12.577Z,40.47
2018-02-06T18:39:38.698Z,38.30
2018-02-06T18:42:04.715Z,35.80
2018-02-06T18:44:30.746Z,36.20
2018-02-06T18:46:57.292Z,37.65
2018-02-06T18:49:23.270Z,37.35
2018-02-06T18:51:51.067Z,35.00
2018-02-06T18:54:17.070Z,37.40
2018-02-06T18:56:43.046Z,32.80
2018-02-06T18:59:09.715Z,36.13
2018-02-06T19:01:35.719Z,39.50
2018-02-06T19:04:01.845Z,37.45
2018-02-06T19:06:33.195Z,37.15
2018-02-06T19:08:59.242Z,34.90
2018-02-06T19:11:26.334Z,31.25
2018-02-06T19:13:52.367Z,39.75
2018-02-06T19:16:19.616Z,33.08
2018-02-06T19:18:46.287Z,34.72
2018-02-06T19:21:12.926Z,43.47
2018-02-06T19:23:39.260Z,36.42
2018-02-06T19:26:05.526Z,36.97
2018-02-06T19:28:32.166Z,40.42
2018-02-06T19:30:58.289Z,59.40
2018-02-06T19:33:25.052Z,36.78
2018-02-06T19:35:51.062Z,37.72
2018-02-06T19:38:17.319Z,42.28
2018-02-06T19:40:44.383Z,39.88
2018-02-06T19:43:10.363Z,42.67
2018-02-06T19:45:36.642Z,38.00
2018-02-06T19:48:02.750Z,36.83
2018-02-06T19:50:28.792Z,43.17
2018-02-06T19:52:54.934Z,40.60
2018-02-06T19:55:20.932Z,38.72
2018-02-06T19:57:47.254Z,38.30
2018-02-06T20:00:13.265Z,36.65
2018-02-06T20:02:42.117Z,35.85
2018-02-06T20:05:08.484Z,36.83
2018-02-06T20:07:35.179Z,36.67
2018-02-06T20:10:01.189Z,37.45
2018-02-06T20:12:27.195Z,40.45
2018-02-06T20:14:53.234Z,35.33
2018-02-06T20:17:19.391Z,39.40
2018-02-06T20:19:45.453Z,32.13
2018-02-06T20:22:11.386Z,44.60
2018-02-06T20:24:37.338Z,42.57
2018-02-06T20:27:04.424Z,43.40
2018-02-06T20:29:30.426Z,43.42
2018-02-06T20:31:56.408Z,41.90
2018-02-06T20:34:23.402Z,37.23
2018-02-06T20:36:50.147Z,42.13
2018-02-06T20:39:16.139Z,41.45
2018-02-06T20:41:42.936Z,41.88
2018-02-06T20:44:08.969Z,40.15
2018-02-06T20:46:35.150Z,43.00
2018-02-06T20:49:02.045Z,46.13
2018-02-06T20:51:28.020Z,42.45
2018-02-06T20:53:54.006Z,41.17
2018-02-06T20:56:20.039Z,39.53
2018-02-06T20:58:46.177Z,43.63
2018-02-06T21:01:12.251Z,34.05
2018-02-06T21:03:39.098Z,38.22
2018-02-06T21:06:05.756Z,40.90
2018-02-06T21:08:31.711Z,41.00
2018-02-06T21:10:58.450Z,41.70
2018-02-06T21:13:25.261Z,45.35
2018-02-06T21:15:51.234Z,38.97
2018-02-06T21:18:17.426Z,44.73
2018-02-06T21:20:43.460Z,40.20
2018-02-06T21:23:09.584Z,48.20
2018-02-06T21:25:35.565Z,42.70
2018-02-06T21:28:01.551Z,45.17
2018-02-06T21:30:27.530Z,44.07
2018-02-06T21:32:53.498Z,38.70
2018-02-06T21:35:20.072Z,41.03
2018-02-06T21:37:46.058Z,41.88
2018-02-06T21:40:12.042Z,41.77
2018-02-06T21:42:38.707Z,50.33
2018-02-06T21:45:04.717Z,44.38
2018-02-06T21:47:31.475Z,42.78
2018-02-06T21:49:57.438Z,40.42
2018-02-06T21:52:23.415Z,46.77
2018-02-06T21:54:49.390Z,36.20
2018-02-06T21:57:16.384Z,42.47
2018-02-06T21:59:42.778Z,43.35
2018-02-06T22:02:08.773Z,45.88
2018-02-06T22:04:34.970Z,45.47
2018-02-06T22:07:02.697Z,41.15
2018-02-06T22:09:28.754Z,58.55
2018-02-06T22:11:55.542Z,59.90
2018-02-06T22:14:22.309Z,81.87
2018-02-06T22:16:49.300Z,66.30
2018-02-06T22:19:15.254Z,47.92
2018-02-06T22:21:42.035Z,46.20
2018-02-06T22:24:08.014Z,47.67
2018-02-06T22:26:34.153Z,48.77
2018-02-06T22:29:00.165Z,45.47
2018-02-06T22:31:26.125Z,47.20
2018-02-06T22:33:52.610Z,41.70
2018-02-06T22:36:18.635Z,44.53
2018-02-06T22:38:44.602Z,45.10
2018-02-06T22:41:10.604Z,44.40
2018-02-06T22:43:36.561Z,45.35
2018-02-06T22:46:02.549Z,42.37
2018-02-06T22:48:28.555Z,46.70
2018-02-06T22:50:54.532Z,41.65
2018-02-06T22:53:20.506Z,45.33
2018-02-06T22:55:47.392Z,41.00
2018-02-06T22:58:13.412Z,44.15
2018-02-06T23:00:39.400Z,41.35
2018-02-06T23:03:05.395Z,44.72
2018-02-06T23:05:31.316Z,46.55
2018-02-06T23:07:57.312Z,46.33
2018-02-06T23:10:23.319Z,43.25
2018-02-06T23:12:49.303Z,42.08
2018-02-06T23:15:15.294Z,43.63
2018-02-06T23:17:41.304Z,40.58
2018-02-06T23:20:08.093Z,44.85
2018-02-06T23:22:34.097Z,39.58
2018-02-06T23:25:00.131Z,46.60
2018-02-06T23:27:26.100Z,36.88
2018-02-06T23:29:52.054Z,43.07
2018-02-06T23:32:18.068Z,45.47
2018-02-06T23:34:44.235Z,40.40
2018-02-06T23:37:10.261Z,43.63
2018-02-06T23:39:36.266Z,44.25
2018-02-06T23:42:02.292Z,47.40
2018-02-06T23:44:28.319Z,42.60
2018-02-06T23:46:55.026Z,48.13
2018-02-06T23:49:20.974Z,48.90
2018-02-06T23:51:47.005Z,44.50
2018-02-06T23:54:13.015Z,45.35
2018-02-06T23:56:39.165Z,43.17
2018-02-06T23:59:06.117Z,42.42
